Time;durP1;ratioP1;P1;durP2;ratioP2;P2;SDS_P1;SDS_P2;PMS_P1;PMS_P2;Temp;Humidity;BMP_temperature;BMP_pressure;BME280_temperature;BME280_humidity;BME280_pressure;Samples;Min_cycle;Max_cycle;Signal;HPM_P1;HPM_P2
2021/03/14 00:01:27;;;;;;;4.25;1.55;;;;;;;;;;5068326;28;20032;-92
2021/03/14 00:03:53;;;;;;;4.60;1.60;;;;;;;;;;5074052;28;20051;-94
2021/03/14 00:06:19;;;;;;;7.93;1.50;;;;;;;;;;5070207;28;20120;-92
2021/03/14 00:08:50;;;;;;;4.70;1.73;;;;;;;;;;5071604;28;20019;-94
2021/03/14 00:11:16;;;;;;;4.68;1.40;;;;;;;;;;5075697;28;20036;-93
2021/03/14 00:13:42;;;;;;;3.55;1.20;;;;;;;;;;5068454;28;20032;-92
2021/03/14 00:16:25;;;;;;;6.43;0.95;;;;;;;;;;5074445;28;20036;-91
2021/03/14 00:18:54;;;;;;;3.33;1.27;;;;;;;;;;5071641;28;20028;-93
2021/03/14 00:21:27;;;;;;;6.35;1.10;;;;;;;;;;5066953;28;20032;-91
2021/03/14 00:23:56;;;;;;;2.60;0.95;;;;;;;;;;5092241;28;20388;-92
2021/03/14 00:26:24;;;;;;;3.20;0.87;;;;;;;;;;5089861;28;20040;-92
2021/03/14 00:28:51;;;;;;;4.13;1.02;;;;;;;;;;5087914;28;20284;-93
2021/03/14 00:31:17;;;;;;;4.25;1.27;;;;;;;;;;5072821;28;20029;-94
2021/03/14 00:33:43;;;;;;;2.88;0.77;;;;;;;;;;5073273;28;20028;-93
2021/03/14 00:36:15;;;;;;;5.60;1.10;;;;;;;;;;5067813;28;20028;-93
2021/03/14 00:38:42;;;;;;;5.47;1.10;;;;;;;;;;5087450;28;20024;-93
2021/03/14 00:41:08;;;;;;;3.38;0.82;;;;;;;;;;5066601;28;20028;-94
2021/03/14 00:43:36;;;;;;;3.38;1.13;;;;;;;;;;5084409;28;20081;-93
2021/03/14 00:46:05;;;;;;;3.13;0.93;;;;;;;;;;5082833;28;20032;-92
2021/03/14 00:48:31;;;;;;;3.03;1.38;;;;;;;;;;5082518;28;20081;-91
2021/03/14 00:50:58;;;;;;;4.28;1.13;;;;;;;;;;5099362;28;20077;-91
2021/03/14 00:53:24;;;;;;;2.38;1.02;;;;;;;;;;5070024;28;20066;-92
2021/03/14 00:56:01;;;;;;;3.20;0.95;;;;;;;;;;5077577;28;20108;-92
2021/03/14 00:58:27;;;;;;;4.03;1.00;;;;;;;;;;5081608;28;20028;-93
2021/03/14 01:00:53;;;;;;;5.18;1.38;;;;;;;;;;5081201;28;20035;-92
2021/03/14 01:03:19;;;;;;;7.40;1.30;;;;;;;;;;5074752;28;20051;-94
2021/03/14 01:05:45;;;;;;;5.68;1.23;;;;;;;;;;5060649;28;20032;-91
2021/03/14 01:08:15;;;;;;;9.55;1.80;;;;;;;;;;5095877;28;20032;-92
2021/03/14 01:10:41;;;;;;;3.63;1.13;;;;;;;;;;5100210;28;20024;-93
2021/03/14 01:13:07;;;;;;;3.30;1.08;;;;;;;;;;5081352;28;20062;-92
2021/03/14 01:15:36;;;;;;;3.70;1.55;;;;;;;;;;5074216;28;20024;-92
2021/03/14 01:18:05;;;;;;;3.97;1.20;;;;;;;;;;5083023;28;20043;-93
2021/03/14 01:20:33;;;;;;;6.72;1.73;;;;;;;;;;5083704;28;20032;-92
2021/03/14 01:23:00;;;;;;;4.67;1.13;;;;;;;;;;5089835;28;20036;-92
2021/03/14 01:25:26;;;;;;;6.03;2.38;;;;;;;;;;5090917;28;20283;-91
2021/03/14 01:27:53;;;;;;;4.32;1.58;;;;;;;;;;5076519;28;20055;-92
2021/03/14 01:30:19;;;;;;;6.53;1.60;;;;;;;;;;5076294;28;20451;-93
2021/03/14 01:32:46;;;;;;;2.63;1.20;;;;;;;;;;5102249;28;20032;-93
2021/03/14 01:35:16;;;;;;;3.20;1.50;;;;;;;;;;5079317;28;20028;-92
2021/03/14 01:37:42;;;;;;;4.85;1.75;;;;;;;;;;5078809;28;20032;-93
2021/03/14 01:40:09;;;;;;;4.65;1.63;;;;;;;;;;5078407;28;20020;-91
2021/03/14 01:42:35;;;;;;;5.65;1.60;;;;;;;;;;5079959;28;20028;-93
2021/03/14 01:45:02;;;;;;;6.68;1.40;;;;;;;;;;5117031;28;20097;-93
2021/03/14 01:47:31;;;;;;;6.72;2.15;;;;;;;;;;5099523;28;20084;-93
2021/03/14 01:50:00;;;;;;;8.73;2.20;;;;;;;;;;5099368;28;20012;-91
2021/03/14 01:52:27;;;;;;;7.78;2.20;;;;;;;;;;5098808;28;20071;-91
2021/03/14 01:54:54;;;;;;;7.82;3.00;;;;;;;;;;5094263;28;20080;-92
2021/03/14 01:57:20;;;;;;;6.60;2.28;;;;;;;;;;5095772;28;20044;-92
2021/03/14 01:59:49;;;;;;;6.13;1.77;;;;;;;;;;5078335;28;20039;-91
2021/03/14 02:02:15;;;;;;;4.47;1.88;;;;;;;;;;5077266;28;20037;-92
2021/03/14 02:04:41;;;;;;;7.53;2.88;;;;;;;;;;5075408;28;20051;-92
2021/03/14 02:07:08;;;;;;;7.45;2.60;;;;;;;;;;5075207;28;20056;-92
2021/03/14 02:09:34;;;;;;;3.28;1.60;;;;;;;;;;5092400;28;20093;-93
2021/03/14 02:12:07;;;;;;;6.70;2.08;;;;;;;;;;5102826;28;20108;-92
2021/03/14 02:14:34;;;;;;;4.93;1.63;;;;;;;;;;5069370;28;20021;-93
2021/03/14 02:17:03;;;;;;;7.95;2.00;;;;;;;;;;5064576;28;20126;-93
2021/03/14 02:19:36;;;;;;;7.38;1.77;;;;;;;;;;5064362;28;20117;-92
2021/03/14 02:22:03;;;;;;;5.60;1.52;;;;;;;;;;5079773;28;20021;-93
2021/03/14 02:24:34;;;;;;;5.18;1.55;;;;;;;;;;5085125;28;20097;-93
2021/03/14 02:27:05;;;;;;;6.90;2.10;;;;;;;;;;5098040;28;20028;-92
2021/03/14 02:29:33;;;;;;;8.10;1.83;;;;;;;;;;5098281;28;20055;-92
2021/03/14 02:32:00;;;;;;;5.65;2.00;;;;;;;;;;5082581;28;20051;-93
2021/03/14 02:34:49;;;;;;;6.03;1.92;;;;;;;;;;5089592;28;20028;-92
2021/03/14 02:37:19;;;;;;;4.93;2.13;;;;;;;;;;5062798;28;20039;-92
2021/03/14 02:39:45;;;;;;;3.05;1.60;;;;;;;;;;5100701;28;20123;-93
2021/03/14 02:42:12;;;;;;;5.07;2.20;;;;;;;;;;5097585;28;20036;-94
2021/03/14 02:44:41;;;;;;;9.05;2.05;;;;;;;;;;5062439;28;20217;-91
2021/03/14 02:47:08;;;;;;;5.68;1.67;;;;;;;;;;5064203;28;20123;-93
2021/03/14 02:49:35;;;;;;;6.32;2.05;;;;;;;;;;5097979;28;20081;-93
2021/03/14 02:52:03;;;;;;;7.53;1.77;;;;;;;;;;5088222;28;20028;-92
2021/03/14 02:54:30;;;;;;;8.43;1.80;;;;;;;;;;5084218;28;20035;-93
2021/03/14 02:56:59;;;;;;;5.18;1.65;;;;;;;;;;5102112;28;20306;-93
2021/03/14 02:59:25;;;;;;;11.85;2.20;;;;;;;;;;5097098;28;20084;-92
2021/03/14 03:01:52;;;;;;;9.18;2.15;;;;;;;;;;5078772;28;20020;-92
2021/03/14 03:04:30;;;;;;;6.30;1.73;;;;;;;;;;5093030;28;20028;-92
2021/03/14 03:06:57;;;;;;;7.10;2.00;;;;;;;;;;5099636;28;20085;-92
2021/03/14 03:09:23;;;;;;;9.98;2.30;;;;;;;;;;5077171;28;20031;-92
2021/03/14 03:11:50;;;;;;;6.47;2.28;;;;;;;;;;5080820;28;20130;-93
2021/03/14 03:14:17;;;;;;;10.45;2.45;;;;;;;;;;5065017;28;20032;-92
2021/03/14 03:16:46;;;;;;;15.27;3.22;;;;;;;;;;5094151;28;20066;-92
2021/03/14 03:19:13;;;;;;;8.95;2.25;;;;;;;;;;5078439;28;20043;-93
2021/03/14 03:21:39;;;;;;;13.70;3.13;;;;;;;;;;5088619;28;20032;-92
2021/03/14 03:24:06;;;;;;;10.73;3.03;;;;;;;;;;5070107;28;20074;-92
2021/03/14 03:26:32;;;;;;;6.80;2.22;;;;;;;;;;5093639;28;20036;-92
2021/03/14 03:28:58;;;;;;;8.90;2.40;;;;;;;;;;5075123;28;20024;-90
2021/03/14 03:31:24;;;;;;;8.82;2.60;;;;;;;;;;5071137;28;21282;-93
2021/03/14 03:33:51;;;;;;;8.90;2.65;;;;;;;;;;5070115;28;20023;-92
2021/03/14 03:36:17;;;;;;;17.83;3.25;;;;;;;;;;5093578;28;20028;-90
2021/03/14 03:38:43;;;;;;;8.85;2.80;;;;;;;;;;5074418;28;20047;-90
2021/03/14 03:41:09;;;;;;;6.80;3.08;;;;;;;;;;5073684;28;20327;-91
2021/03/14 03:43:36;;;;;;;7.93;3.53;;;;;;;;;;5090032;28;20038;-91
2021/03/14 03:46:06;;;;;;;5.75;2.65;;;;;;;;;;5073191;28;20039;-92
2021/03/14 03:48:46;;;;;;;16.55;3.42;;;;;;;;;;5092652;28;20031;-92
2021/03/14 03:51:12;;;;;;;;;;;;;;;;;;5075454;28;20043;-92
2021/03/14 03:53:39;;;;;;;8.82;2.58;;;;;;;;;;5069602;28;19995;-91
2021/03/14 03:56:06;;;;;;;6.63;3.20;;;;;;;;;;5071216;28;20367;-92
2021/03/14 03:58:33;;;;;;;4.63;2.33;;;;;;;;;;5076101;28;20028;-92
2021/03/14 04:01:01;;;;;;;8.07;2.65;;;;;;;;;;5069541;28;20024;-91
2021/03/14 04:03:28;;;;;;;10.43;3.10;;;;;;;;;;5066653;28;20422;-91
2021/03/14 04:05:58;;;;;;;8.30;3.00;;;;;;;;;;5068599;28;20032;-93
2021/03/14 04:08:25;;;;;;;10.48;3.38;;;;;;;;;;5075471;28;20037;-91
2021/03/14 04:10:52;;;;;;;15.13;2.90;;;;;;;;;;5075627;28;20027;-92
2021/03/14 04:13:19;;;;;;;4.07;2.28;;;;;;;;;;5089153;28;20035;-92
2021/03/14 04:15:45;;;;;;;8.88;2.65;;;;;;;;;;5068171;28;20025;-91
2021/03/14 04:18:14;;;;;;;10.25;2.90;;;;;;;;;;5070057;28;20028;-92
2021/03/14 04:20:41;;;;;;;6.60;2.45;;;;;;;;;;5075668;28;20043;-92
2021/03/14 04:23:11;;;;;;;11.25;3.00;;;;;;;;;;5072107;28;20042;-93
2021/03/14 04:25:38;;;;;;;11.40;3.20;;;;;;;;;;5073086;28;20031;-91
2021/03/14 04:28:05;;;;;;;8.85;2.70;;;;;;;;;;5071410;28;20054;-91
2021/03/14 04:30:35;;;;;;;11.10;3.45;;;;;;;;;;5087201;28;20084;-91
2021/03/14 04:33:01;;;;;;;12.40;2.65;;;;;;;;;;5089407;28;20028;-93
2021/03/14 04:35:28;;;;;;;9.18;2.63;;;;;;;;;;5087649;28;20438;-90
2021/03/14 04:37:55;;;;;;;10.73;2.70;;;;;;;;;;5071042;28;20037;-92
2021/03/14 04:40:21;;;;;;;11.70;2.65;;;;;;;;;;5071117;28;20037;-92
2021/03/14 04:42:48;;;;;;;11.52;2.45;;;;;;;;;;5071093;28;20043;-90
2021/03/14 04:45:18;;;;;;;11.50;2.92;;;;;;;;;;5068675;28;20020;-91
2021/03/14 04:47:44;;;;;;;;;;;;;;;;;;5074242;28;20343;-92
2021/03/14 04:50:11;;;;;;;10.25;2.50;;;;;;;;;;5070976;28;19934;-92
2021/03/14 04:52:38;;;;;;;8.10;2.58;;;;;;;;;;5072264;28;20082;-91
2021/03/14 04:55:09;;;;;;;10.15;2.33;;;;;;;;;;5088522;28;20028;-92
2021/03/14 04:57:36;;;;;;;13.68;2.80;;;;;;;;;;5067259;28;20063;-90
2021/03/14 05:00:03;;;;;;;9.40;2.85;;;;;;;;;;5071370;28;20089;-90
2021/03/14 05:02:34;;;;;;;10.68;2.38;;;;;;;;;;5068762;28;20024;-93
2021/03/14 05:05:01;;;;;;;7.97;2.70;;;;;;;;;;5071330;28;20030;-92
2021/03/14 05:07:31;;;;;;;14.10;4.13;;;;;;;;;;5070016;28;20059;-91
2021/03/14 05:09:58;;;;;;;9.80;2.47;;;;;;;;;;5070043;28;20025;-93
2021/03/14 05:12:25;;;;;;;6.63;2.30;;;;;;;;;;5085259;28;20032;-91
2021/03/14 05:14:51;;;;;;;7.10;2.35;;;;;;;;;;5069785;28;20305;-91
2021/03/14 05:17:18;;;;;;;9.80;2.17;;;;;;;;;;5089329;28;20033;-91
2021/03/14 05:19:47;;;;;;;8.23;2.33;;;;;;;;;;5071628;28;20024;-93
2021/03/14 05:22:13;;;;;;;9.85;2.83;;;;;;;;;;5088436;28;20035;-93
2021/03/14 05:24:40;;;;;;;13.95;2.83;;;;;;;;;;5082599;28;20042;-92
2021/03/14 05:27:08;;;;;;;9.68;2.47;;;;;;;;;;5099944;28;20114;-91
2021/03/14 05:29:39;;;;;;;9.40;2.70;;;;;;;;;;5081706;28;20031;-92
2021/03/14 05:32:06;;;;;;;6.90;2.08;;;;;;;;;;5069822;28;20040;-93
2021/03/14 05:34:32;;;;;;;11.52;2.58;;;;;;;;;;5061817;28;20047;-92
2021/03/14 05:37:07;;;;;;;12.52;3.00;;;;;;;;;;5081445;28;20029;-91
2021/03/14 05:39:33;;;;;;;7.80;2.63;;;;;;;;;;5082188;28;20108;-92
2021/03/14 05:42:00;;;;;;;8.55;2.45;;;;;;;;;;5073090;28;20054;-91
2021/03/14 05:44:26;;;;;;;11.77;2.45;;;;;;;;;;5061783;28;20458;-91
2021/03/14 05:46:55;;;;;;;8.00;2.78;;;;;;;;;;5062161;28;20029;-92
2021/03/14 05:49:22;;;;;;;10.27;3.60;;;;;;;;;;5079310;28;20054;-92
2021/03/14 05:51:52;;;;;;;7.75;2.92;;;;;;;;;;5064974;28;20028;-93
2021/03/14 05:54:22;;;;;;;7.90;2.58;;;;;;;;;;5082550;28;20074;-93
2021/03/14 05:56:49;;;;;;;8.20;2.92;;;;;;;;;;5080998;28;20031;-92
2021/03/14 05:59:20;;;;;;;12.13;3.83;;;;;;;;;;5081634;28;20024;-91
2021/03/14 06:01:52;;;;;;;13.40;5.30;;;;;;;;;;5071776;28;20093;-92
2021/03/14 06:04:19;;;;;;;10.65;3.10;;;;;;;;;;5068489;28;20040;-91
2021/03/14 06:06:48;;;;;;;9.93;3.15;;;;;;;;;;5093202;28;20060;-92
2021/03/14 06:09:14;;;;;;;;;;;;;;;;;;5081928;28;20033;-92
2021/03/14 06:11:41;;;;;;;6.65;2.80;;;;;;;;;;5088515;28;20364;-92
2021/03/14 06:14:12;;;;;;;10.80;2.95;;;;;;;;;;5076523;28;20373;-92
2021/03/14 06:16:39;;;;;;;7.38;2.65;;;;;;;;;;5072020;28;20027;-92
2021/03/14 06:19:05;;;;;;;9.75;3.17;;;;;;;;;;5072731;28;20028;-92
2021/03/14 06:21:32;;;;;;;8.95;3.03;;;;;;;;;;5071561;28;20035;-92
2021/03/14 06:24:02;;;;;;;13.32;3.13;;;;;;;;;;5091991;28;20062;-90
2021/03/14 06:26:35;;;;;;;11.82;3.20;;;;;;;;;;5074752;28;20045;-90
2021/03/14 06:29:21;;;;;;;7.80;2.63;;;;;;;;;;5078654;28;20035;-91
2021/03/14 06:31:56;;;;;;;8.43;3.00;;;;;;;;;;5071485;28;20044;-92
2021/03/14 06:34:32;;;;;;;11.63;3.58;;;;;;;;;;5072428;28;20025;-92
2021/03/14 06:37:09;;;;;;;15.95;3.55;;;;;;;;;;5072987;28;20135;-91
2021/03/14 06:39:36;;;;;;;9.57;3.35;;;;;;;;;;5074114;28;20032;-91
2021/03/14 06:42:02;;;;;;;11.02;3.97;;;;;;;;;;5073669;28;20036;-90
2021/03/14 06:44:32;;;;;;;10.10;3.42;;;;;;;;;;5075165;28;20173;-91
2021/03/14 06:47:01;;;;;;;15.25;3.40;;;;;;;;;;5074866;28;20055;-92
2021/03/14 06:49:35;;;;;;;10.52;3.72;;;;;;;;;;5094572;28;20027;-91
2021/03/14 06:52:01;;;;;;;12.25;3.97;;;;;;;;;;5084572;28;20024;-93
2021/03/14 06:54:27;;;;;;;14.32;2.78;;;;;;;;;;5077584;28;20336;-91
2021/03/14 06:57:13;;;;;;;12.88;3.58;;;;;;;;;;5073345;28;20025;-90
2021/03/14 06:59:48;;;;;;;9.80;2.92;;;;;;;;;;5083204;28;20162;-92
2021/03/14 07:02:18;;;;;;;12.95;3.17;;;;;;;;;;5092004;28;20023;-92
2021/03/14 07:04:44;;;;;;;10.85;3.05;;;;;;;;;;5077099;28;20044;-92
2021/03/14 07:07:15;;;;;;;15.50;3.80;;;;;;;;;;5094799;28;20020;-92
2021/03/14 07:09:42;;;;;;;8.77;3.17;;;;;;;;;;5070304;28;20040;-92
2021/03/14 07:12:21;;;;;;;14.68;3.67;;;;;;;;;;5070923;28;20024;-93
2021/03/14 07:14:48;;;;;;;12.75;3.85;;;;;;;;;;5073176;28;20387;-92
2021/03/14 07:17:29;;;;;;;10.38;3.70;;;;;;;;;;5077369;28;20070;-92
2021/03/14 07:19:57;;;;;;;11.68;3.90;;;;;;;;;;5076253;28;20024;-92
2021/03/14 07:22:23;;;;;;;9.25;3.22;;;;;;;;;;5071301;28;20356;-92
2021/03/14 07:24:50;;;;;;;11.00;2.53;;;;;;;;;;5074372;28;20043;-91
2021/03/14 07:27:23;;;;;;;17.38;5.25;;;;;;;;;;5068336;28;20115;-92
2021/03/14 07:29:50;;;;;;;10.93;3.95;;;;;;;;;;5091997;28;20020;-92
2021/03/14 07:32:16;;;;;;;8.98;3.17;;;;;;;;;;5075437;28;20423;-92
2021/03/14 07:34:45;;;;;;;11.40;3.78;;;;;;;;;;5072083;28;20024;-91
2021/03/14 07:37:11;;;;;;;12.80;3.83;;;;;;;;;;5092181;28;20081;-92
2021/03/14 07:39:37;;;;;;;13.80;4.80;;;;;;;;;;5089291;28;20276;-91
2021/03/14 07:42:04;;;;;;;10.25;3.25;;;;;;;;;;5068638;28;20114;-92
2021/03/14 07:44:30;;;;;;;5.95;2.90;;;;;;;;;;5094992;28;20039;-92
2021/03/14 07:46:57;;;;;;;9.23;3.78;;;;;;;;;;5091900;28;20028;-91
2021/03/14 07:49:24;;;;;;;9.43;3.47;;;;;;;;;;5089165;28;20053;-92
2021/03/14 07:52:02;;;;;;;11.20;3.25;;;;;;;;;;5071142;28;20028;-92
2021/03/14 07:54:28;;;;;;;9.60;3.65;;;;;;;;;;5089489;28;20118;-93
2021/03/14 07:56:59;;;;;;;8.07;3.60;;;;;;;;;;5072302;28;20039;-91
2021/03/14 07:59:26;;;;;;;8.93;3.42;;;;;;;;;;5069929;28;20063;-92
2021/03/14 08:01:52;;;;;;;7.93;3.70;;;;;;;;;;5074763;28;20462;-92
2021/03/14 08:04:32;;;;;;;6.57;3.25;;;;;;;;;;5068339;28;20032;-91
2021/03/14 08:06:59;;;;;;;7.10;3.28;;;;;;;;;;5077052;28;20028;-89
2021/03/14 08:09:42;;;;;;;7.20;3.10;;;;;;;;;;5073879;28;20034;-91
2021/03/14 08:12:15;;;;;;;6.78;3.00;;;;;;;;;;5070484;28;20024;-90
2021/03/14 08:14:42;;;;;;;4.20;2.10;;;;;;;;;;5077522;28;20040;-91
2021/03/14 08:17:15;;;;;;;6.93;2.08;;;;;;;;;;5073764;28;20035;-91
2021/03/14 08:19:42;;;;;;;4.18;2.53;;;;;;;;;;5070510;28;20036;-91
2021/03/14 08:22:37;;;;;;;3.95;2.25;;;;;;;;;;5068704;28;20051;-92
2021/03/14 08:25:30;;;;;;;3.92;2.33;;;;;;;;;;5076138;28;20032;-89
2021/03/14 08:28:19;;;;;;;5.30;2.92;;;;;;;;;;5073923;28;20075;-90
2021/03/14 08:30:46;;;;;;;2.33;2.13;;;;;;;;;;5093989;28;20036;-92
2021/03/14 08:33:21;;;;;;;4.13;1.70;;;;;;;;;;5072124;28;20032;-90
2021/03/14 08:35:49;;;;;;;5.82;2.28;;;;;;;;;;5074271;28;20077;-91
2021/03/14 08:38:25;;;;;;;6.55;2.55;;;;;;;;;;5070193;28;20032;-91
2021/03/14 08:41:11;;;;;;;4.85;2.60;;;;;;;;;;5091506;28;20100;-92
2021/03/14 08:43:41;;;;;;;6.25;2.83;;;;;;;;;;5084620;28;20039;-92
2021/03/14 08:46:07;;;;;;;5.03;3.53;;;;;;;;;;5078361;28;20028;-92
2021/03/14 08:48:36;;;;;;;6.25;3.53;;;;;;;;;;5071323;28;20020;-93
2021/03/14 08:51:02;;;;;;;5.80;3.75;;;;;;;;;;5088809;28;20055;-92
2021/03/14 08:53:28;;;;;;;4.82;4.10;;;;;;;;;;5072623;28;20028;-92
2021/03/14 08:55:54;;;;;;;5.20;3.78;;;;;;;;;;5094983;28;20031;-92
2021/03/14 08:58:27;;;;;;;7.63;4.70;;;;;;;;;;5088023;28;20024;-91
2021/03/14 09:01:02;;;;;;;7.75;4.13;;;;;;;;;;5071564;28;20025;-92
2021/03/14 09:03:29;;;;;;;6.13;4.13;;;;;;;;;;5092989;28;20044;-92
2021/03/14 09:06:10;;;;;;;7.03;3.80;;;;;;;;;;5077365;28;20104;-92
2021/03/14 09:08:36;;;;;;;6.55;4.18;;;;;;;;;;5087887;28;20135;-93
2021/03/14 09:11:02;;;;;;;11.60;4.38;;;;;;;;;;5076657;28;20035;-93
2021/03/14 09:13:29;;;;;;;8.77;4.47;;;;;;;;;;5084471;28;20069;-93
2021/03/14 09:15:55;;;;;;;10.55;4.47;;;;;;;;;;5067222;28;20039;-92
2021/03/14 09:18:25;;;;;;;7.15;4.25;;;;;;;;;;5072768;28;20031;-93
2021/03/14 09:20:58;;;;;;;8.43;4.22;;;;;;;;;;5082094;28;20031;-93
2021/03/14 09:23:25;;;;;;;9.10;5.10;;;;;;;;;;5089386;28;20128;-91
2021/03/14 09:25:52;;;;;;;10.30;6.22;;;;;;;;;;5080120;28;20035;-89
2021/03/14 09:28:18;;;;;;;12.68;6.20;;;;;;;;;;5074712;28;20028;-93
2021/03/14 09:30:44;;;;;;;9.77;5.18;;;;;;;;;;5072222;28;20447;-89
2021/03/14 09:33:12;;;;;;;11.98;6.20;;;;;;;;;;5074092;28;20024;-91
2021/03/14 09:35:42;;;;;;;11.07;5.82;;;;;;;;;;5070241;28;20109;-93
2021/03/14 09:38:15;;;;;;;9.13;6.10;;;;;;;;;;5075516;28;20024;-92
2021/03/14 09:40:42;;;;;;;11.77;6.18;;;;;;;;;;5067067;28;20466;-93
2021/03/14 09:43:13;;;;;;;16.17;7.68;;;;;;;;;;5068588;28;20070;-92
2021/03/14 09:45:48;;;;;;;14.52;7.05;;;;;;;;;;5076414;28;20139;-91
2021/03/14 09:48:34;;;;;;;16.42;7.72;;;;;;;;;;5072169;28;20028;-93
2021/03/14 09:51:04;;;;;;;13.00;8.23;;;;;;;;;;5071738;28;20032;-93
2021/03/14 09:53:37;;;;;;;12.27;8.38;;;;;;;;;;5075467;28;20028;-92
2021/03/14 09:56:07;;;;;;;16.08;8.05;;;;;;;;;;5075239;28;20020;-93
2021/03/14 09:58:33;;;;;;;10.93;8.15;;;;;;;;;;5063908;28;20041;-93
2021/03/14 10:01:01;;;;;;;16.63;8.32;;;;;;;;;;5066405;28;20048;-92
2021/03/14 10:03:28;;;;;;;8.95;8.02;;;;;;;;;;5067529;28;20404;-93
2021/03/14 10:05:56;;;;;;;14.50;7.57;;;;;;;;;;5068748;28;20351;-92
2021/03/14 10:08:23;;;;;;;12.43;7.93;;;;;;;;;;5074172;28;20040;-93
2021/03/14 10:10:50;;;;;;;14.63;8.73;;;;;;;;;;5068027;28;20043;-91
2021/03/14 10:13:17;;;;;;;12.40;7.97;;;;;;;;;;5088027;28;20053;-90
2021/03/14 10:15:43;;;;;;;11.85;7.05;;;;;;;;;;5086185;28;20027;-92
2021/03/14 10:18:10;;;;;;;9.57;7.75;;;;;;;;;;5067882;28;20034;-90
2021/03/14 10:20:37;;;;;;;10.63;7.13;;;;;;;;;;5079903;28;20328;-91
2021/03/14 10:23:05;;;;;;;9.05;6.15;;;;;;;;;;5075634;28;20097;-90
2021/03/14 10:25:32;;;;;;;11.90;7.63;;;;;;;;;;5068045;28;20431;-92
2021/03/14 10:28:27;;;;;;;8.55;6.18;;;;;;;;;;5067554;28;20031;-91
2021/03/14 10:31:01;;;;;;;7.75;6.40;;;;;;;;;;5053529;28;20043;-91
2021/03/14 10:33:31;;;;;;;9.15;6.70;;;;;;;;;;5072758;28;20062;-90
2021/03/14 10:36:05;;;;;;;9.55;6.63;;;;;;;;;;5077623;28;20024;-91
2021/03/14 10:38:38;;;;;;;8.57;6.43;;;;;;;;;;5083688;28;20032;-93
2021/03/14 10:41:09;;;;;;;9.50;6.57;;;;;;;;;;5068127;28;20043;-92
2021/03/14 10:43:43;;;;;;;8.70;6.28;;;;;;;;;;5086626;28;20106;-91
2021/03/14 10:46:09;;;;;;;11.25;7.00;;;;;;;;;;5073058;28;20260;-91
2021/03/14 10:48:35;;;;;;;8.23;6.90;;;;;;;;;;5077027;28;20029;-93
2021/03/14 10:51:02;;;;;;;9.35;5.95;;;;;;;;;;5092307;28;20297;-90
2021/03/14 10:53:29;;;;;;;10.65;7.43;;;;;;;;;;5094851;28;20130;-92
2021/03/14 10:56:05;;;;;;;14.15;7.18;;;;;;;;;;5093017;28;20034;-92
2021/03/14 10:58:40;;;;;;;10.60;8.40;;;;;;;;;;5078959;28;20069;-92
2021/03/14 11:01:08;;;;;;;13.65;8.52;;;;;;;;;;5078476;28;20117;-91
2021/03/14 11:03:39;;;;;;;22.88;10.18;;;;;;;;;;5077169;28;20047;-92
2021/03/14 11:06:38;;;;;;;14.63;8.15;;;;;;;;;;5076386;28;20028;-91
2021/03/14 11:09:09;;;;;;;17.90;9.40;;;;;;;;;;5055285;28;20040;-93
2021/03/14 11:11:42;;;;;;;11.35;7.63;;;;;;;;;;5071818;28;20035;-91
2021/03/14 11:14:26;;;;;;;9.02;7.00;;;;;;;;;;5074735;28;20025;-92
2021/03/14 11:17:08;;;;;;;11.18;6.68;;;;;;;;;;5075686;28;20115;-92
2021/03/14 11:19:38;;;;;;;12.77;6.05;;;;;;;;;;5093704;28;20473;-92
2021/03/14 11:22:04;;;;;;;8.23;6.05;;;;;;;;;;5096434;28;20024;-92
2021/03/14 11:24:31;;;;;;;11.25;7.10;;;;;;;;;;5093527;28;20024;-90
2021/03/14 11:26:57;;;;;;;7.82;5.45;;;;;;;;;;5075815;28;20030;-92
2021/03/14 11:29:23;;;;;;;10.25;5.68;;;;;;;;;;5080533;28;20038;-92
2021/03/14 11:31:49;;;;;;;8.68;5.43;;;;;;;;;;5075892;28;20032;-92
2021/03/14 11:34:16;;;;;;;8.13;5.57;;;;;;;;;;5077790;28;20039;-92
2021/03/14 11:36:42;;;;;;;10.90;5.57;;;;;;;;;;5092047;28;20351;-92
2021/03/14 11:39:08;;;;;;;7.85;5.60;;;;;;;;;;5073499;28;20032;-92
2021/03/14 11:41:34;;;;;;;13.38;5.53;;;;;;;;;;5070714;28;20122;-91
2021/03/14 11:44:01;;;;;;;6.30;4.82;;;;;;;;;;5078768;28;20391;-92
2021/03/14 11:46:28;;;;;;;6.22;4.97;;;;;;;;;;5076515;28;20028;-90
2021/03/14 11:48:56;;;;;;;7.43;4.93;;;;;;;;;;5075270;28;20016;-92
2021/03/14 11:51:22;;;;;;;7.47;5.10;;;;;;;;;;5089665;28;20032;-92
2021/03/14 11:53:49;;;;;;;7.55;4.55;;;;;;;;;;5073482;28;20038;-92
2021/03/14 11:56:15;;;;;;;8.88;4.85;;;;;;;;;;5071325;28;20036;-92
2021/03/14 11:58:41;;;;;;;13.80;5.95;;;;;;;;;;5077594;28;20033;-92
2021/03/14 12:01:08;;;;;;;6.45;5.13;;;;;;;;;;5080688;28;20028;-90
2021/03/14 12:03:34;;;;;;;10.00;4.32;;;;;;;;;;5070046;28;21026;-91
2021/03/14 12:06:03;;;;;;;8.48;4.05;;;;;;;;;;5075838;28;20371;-90
2021/03/14 12:08:29;;;;;;;4.45;3.55;;;;;;;;;;5072825;28;20024;-91
2021/03/14 12:10:55;;;;;;;8.00;4.43;;;;;;;;;;5071716;28;20032;-92
2021/03/14 12:13:23;;;;;;;7.82;4.57;;;;;;;;;;5074891;28;20067;-92
2021/03/14 12:15:52;;;;;;;13.23;4.57;;;;;;;;;;5067722;28;20032;-91
2021/03/14 12:18:18;;;;;;;11.85;4.90;;;;;;;;;;5092261;28;20032;-91
2021/03/14 12:20:44;;;;;;;8.98;3.58;;;;;;;;;;5076497;28;20032;-93
2021/03/14 12:23:11;;;;;;;6.65;3.85;;;;;;;;;;5086066;28;20036;-90
2021/03/14 12:25:38;;;;;;;6.75;3.35;;;;;;;;;;5074404;28;20123;-91
2021/03/14 12:28:04;;;;;;;4.97;3.15;;;;;;;;;;5087311;28;20024;-92
2021/03/14 12:30:30;;;;;;;6.57;3.40;;;;;;;;;;5075161;28;20024;-91
2021/03/14 12:32:56;;;;;;;4.93;2.53;;;;;;;;;;5082201;28;20025;-92
2021/03/14 12:35:26;;;;;;;4.00;3.38;;;;;;;;;;5074932;28;20036;-91
2021/03/14 12:37:52;;;;;;;6.90;3.28;;;;;;;;;;5069884;28;20031;-91
2021/03/14 12:40:18;;;;;;;6.68;3.42;;;;;;;;;;5069384;28;20028;-90
2021/03/14 12:42:45;;;;;;;10.10;4.50;;;;;;;;;;5085643;28;20028;-92
2021/03/14 12:45:13;;;;;;;7.90;4.38;;;;;;;;;;5071042;28;20045;-91
2021/03/14 12:47:40;;;;;;;5.40;4.55;;;;;;;;;;5080497;28;20024;-91
2021/03/14 12:50:07;;;;;;;5.65;4.32;;;;;;;;;;5070128;28;20032;-92
2021/03/14 12:52:34;;;;;;;8.02;4.50;;;;;;;;;;5072515;28;20032;-91
2021/03/14 12:55:00;;;;;;;8.35;5.20;;;;;;;;;;5090443;28;20020;-92
2021/03/14 12:57:28;;;;;;;8.57;4.35;;;;;;;;;;5066525;28;20032;-92
2021/03/14 12:59:55;;;;;;;7.47;4.23;;;;;;;;;;5089237;28;20036;-92
2021/03/14 13:02:21;;;;;;;5.80;4.03;;;;;;;;;;5094452;28;20036;-91
2021/03/14 13:04:47;;;;;;;5.63;3.58;;;;;;;;;;5097293;28;20028;-92
2021/03/14 13:07:13;;;;;;;6.30;3.65;;;;;;;;;;5093844;28;20058;-92
2021/03/14 13:09:39;;;;;;;6.78;3.90;;;;;;;;;;5068061;28;20032;-91
2021/03/14 13:12:07;;;;;;;5.50;3.80;;;;;;;;;;5061211;28;20555;-92
2021/03/14 13:14:36;;;;;;;6.95;4.15;;;;;;;;;;5068097;28;20467;-93
2021/03/14 13:17:03;;;;;;;4.75;3.25;;;;;;;;;;5082350;28;20025;-92
2021/03/14 13:19:32;;;;;;;8.52;3.75;;;;;;;;;;5064824;28;20036;-92
2021/03/14 13:21:58;;;;;;;3.50;2.70;;;;;;;;;;5069929;28;20032;-92
2021/03/14 13:24:27;;;;;;;5.57;2.42;;;;;;;;;;5068515;28;20050;-91
2021/03/14 13:27:01;;;;;;;5.82;1.65;;;;;;;;;;5066243;28;20123;-92
2021/03/14 13:29:29;;;;;;;4.40;1.75;;;;;;;;;;5088156;28;20096;-91
2021/03/14 13:31:56;;;;;;;4.53;1.87;;;;;;;;;;5089352;28;20081;-92
2021/03/14 13:34:36;;;;;;;2.53;1.30;;;;;;;;;;5075828;28;20036;-91
2021/03/14 13:37:02;;;;;;;4.55;1.83;;;;;;;;;;5069975;28;20087;-92
2021/03/14 13:39:28;;;;;;;2.28;1.20;;;;;;;;;;5067618;28;20147;-92
2021/03/14 13:41:54;;;;;;;4.00;1.70;;;;;;;;;;5069955;28;20369;-92
2021/03/14 13:44:20;;;;;;;1.50;1.35;;;;;;;;;;5087005;28;20047;-93
2021/03/14 13:46:47;;;;;;;2.60;1.20;;;;;;;;;;5074716;28;20113;-91
2021/03/14 13:49:15;;;;;;;2.72;1.38;;;;;;;;;;5076039;28;20042;-93
2021/03/14 13:51:41;;;;;;;3.93;1.17;;;;;;;;;;5067531;28;20435;-92
2021/03/14 13:54:28;;;;;;;2.85;1.30;;;;;;;;;;5081537;28;20031;-90
2021/03/14 13:56:58;;;;;;;3.60;1.58;;;;;;;;;;5065929;28;20024;-91
2021/03/14 13:59:26;;;;;;;3.33;1.35;;;;;;;;;;5067665;28;20039;-92
2021/03/14 14:01:58;;;;;;;2.00;0.88;;;;;;;;;;5067106;28;20032;-91
2021/03/14 14:04:25;;;;;;;2.90;1.05;;;;;;;;;;5082753;28;20044;-90
2021/03/14 14:06:51;;;;;;;2.72;1.05;;;;;;;;;;5066385;28;20096;-92
2021/03/14 14:09:17;;;;;;;2.58;1.00;;;;;;;;;;5063187;28;20028;-91
2021/03/14 14:11:43;;;;;;;1.10;0.75;;;;;;;;;;5083536;28;20078;-90
2021/03/14 14:14:09;;;;;;;2.80;0.70;;;;;;;;;;5086685;28;20016;-90
2021/03/14 14:16:39;;;;;;;1.70;0.73;;;;;;;;;;5084607;28;20442;-91
2021/03/14 14:19:05;;;;;;;4.18;1.00;;;;;;;;;;5065172;28;20040;-91
2021/03/14 14:21:31;;;;;;;2.08;0.75;;;;;;;;;;5065064;28;20032;-90
2021/03/14 14:23:57;;;;;;;1.10;0.60;;;;;;;;;;5067136;28;20032;-89
2021/03/14 14:26:36;;;;;;;2.05;1.15;;;;;;;;;;5064749;28;20032;-92
2021/03/14 14:29:02;;;;;;;4.18;1.40;;;;;;;;;;5070386;28;20024;-92
2021/03/14 14:31:31;;;;;;;1.67;0.80;;;;;;;;;;5080506;28;20117;-92
2021/03/14 14:34:00;;;;;;;4.18;0.98;;;;;;;;;;5079695;28;20028;-92
2021/03/14 14:36:26;;;;;;;3.78;1.00;;;;;;;;;;5091191;28;20111;-92
2021/03/14 14:38:55;;;;;;;2.25;0.65;;;;;;;;;;5074426;28;20095;-93
2021/03/14 14:41:21;;;;;;;2.38;1.02;;;;;;;;;;5071970;28;20150;-91
2021/03/14 14:43:48;;;;;;;1.60;0.90;;;;;;;;;;5091080;28;20025;-92
2021/03/14 14:46:14;;;;;;;3.70;0.93;;;;;;;;;;5069765;28;20052;-89
2021/03/14 14:48:49;;;;;;;3.80;1.15;;;;;;;;;;5088430;28;20032;-90
2021/03/14 14:51:24;;;;;;;5.00;2.25;;;;;;;;;;5074374;28;20051;-91